ESGT/THN METAR and TAF weather

Enter ICAO airport designator
Station Type Date Time Source
ESGT METAR 2022/12/10 01:20 UTC NOAA

ESGT 100120Z AUTO 01005KT 9999 R15///// R33///// OVC019/// M04/M06 Q1011


Station Type Date Time Source
ESGT Decoded METAR 2022/12/10 01:20 UTC NOAA

Trollhattan Private , Sweden (ESGT) 58-19N 012-21E
Dec 09, 2022 - 08:20 PM EST / 2022.12.10 0120 UTC
Wind: from the N (010 degrees) at 6 MPH (5 KT):0
Visibility: greater than 7 mile(s):0
Sky conditions: overcast
Temperature: 24 F (-4 C)
Windchill: 17 F (-8 C):1
Dew Point: 21 F (-6 C)
Relative Humidity: 85%
Pressure (altimeter): 29.85 in. Hg (1011 hPa)
ob: ESGT 100120Z AUTO 01005KT 9999 R15///// R33///// OVC019/// M04/M06 Q1011
cycle: 1

Station Type Date Time Source
ESGT TAF 2016/08/12 05:58 UTC NOAA

TAF ESGT 120430Z 1205/1224 18007KT 9999 FEW030

Example: see airport list